Time;durP1;ratioP1;P1;durP2;ratioP2;P2;SDS_P1;SDS_P2;PMS_P1;PMS_P2;Temp;Humidity;BMP_temperature;BMP_pressure;BME280_temperature;BME280_humidity;BME280_pressure;Samples;Min_cycle;Max_cycle;Signal;HPM_P1;HPM_P2
2023/09/19 04:01:56;;;;;;;0.90;0.80;;;18.20;97.30;;;;;;5415616;23;20491;-78
2023/09/19 04:04:24;;;;;;;1.13;1.03;;;18.10;97.30;;;;;;5001247;28;20424;-74
2023/09/19 04:06:53;;;;;;;0.97;0.90;;;18.10;97.30;;;;;;5009321;28;20419;-75
2023/09/19 04:09:18;;;;;;;1.00;0.93;;;18.10;97.30;;;;;;5008249;28;20408;-71
2023/09/19 04:11:44;;;;;;;0.80;0.80;;;18.10;97.30;;;;;;5022093;28;20517;-71
2023/09/19 04:14:09;;;;;;;1.07;1.03;;;18.00;97.30;;;;;;5028431;28;20191;-70
2023/09/19 04:16:35;;;;;;;1.00;0.90;;;18.00;97.30;;;;;;5029419;28;20223;-69
2023/09/19 04:19:01;;;;;;;1.30;1.20;;;18.00;97.30;;;;;;5028195;28;20184;-70
2023/09/19 04:21:28;;;;;;;1.10;1.00;;;18.00;97.30;;;;;;5026836;28;20224;-71
2023/09/19 04:23:53;;;;;;;0.90;0.80;;;18.00;97.30;;;;;;5028230;28;20351;-71
2023/09/19 04:26:19;;;;;;;0.90;0.80;;;18.00;97.30;;;;;;5027051;28;20874;-69
2023/09/19 04:28:45;;;;;;;1.07;0.97;;;18.00;97.30;;;;;;5027415;28;20543;-68
2023/09/19 04:31:11;;;;;;;0.87;0.83;;;18.00;97.30;;;;;;5026701;28;20197;-73
2023/09/19 04:33:37;;;;;;;1.37;1.20;;;18.00;97.30;;;;;;5030184;28;20469;-70
2023/09/19 04:36:07;;;;;;;1.10;1.00;;;17.90;97.30;;;;;;5028418;28;20664;-69
2023/09/19 04:38:33;;;;;;;1.20;1.10;;;17.90;97.30;;;;;;5029878;28;20543;-69
2023/09/19 04:40:59;;;;;;;2.53;1.20;;;17.90;97.30;;;;;;5025250;28;20443;-69
2023/09/19 04:43:25;;;;;;;0.93;0.90;;;18.00;97.30;;;;;;5018926;28;20227;-69
2023/09/19 04:45:51;;;;;;;1.00;0.90;;;18.00;97.30;;;;;;5025217;28;20189;-69
2023/09/19 04:48:16;;;;;;;1.97;1.30;;;18.00;97.30;;;;;;5027970;28;20574;-69
2023/09/19 04:50:42;;;;;;;1.93;1.87;;;18.00;97.30;;;;;;5030174;28;20935;-69
2023/09/19 04:53:08;;;;;;;1.00;1.00;;;17.90;97.30;;;;;;5028898;28;20627;-67
2023/09/19 04:55:34;;;;;;;1.10;1.00;;;17.90;97.30;;;;;;5029664;28;20449;-67
2023/09/19 04:57:59;;;;;;;0.90;0.80;;;17.90;97.30;;;;;;5023255;28;20677;-69
2023/09/19 05:00:27;;;;;;;1.50;1.27;;;17.90;97.30;;;;;;5017490;28;20200;-70
2023/09/19 05:02:58;;;;;;;1.23;1.13;;;17.90;97.30;;;;;;5021493;28;20625;-69
2023/09/19 05:05:26;;;;;;;1.37;0.80;;;17.90;97.30;;;;;;5020573;28;20422;-70
2023/09/19 05:07:53;;;;;;;2.00;1.43;;;17.80;97.30;;;;;;5024172;28;20449;-69
2023/09/19 05:10:19;;;;;;;1.17;1.07;;;17.80;97.30;;;;;;5027189;28;20465;-69
2023/09/19 05:12:48;;;;;;;0.90;0.80;;;17.80;97.30;;;;;;5022461;28;20541;-69
2023/09/19 05:15:14;;;;;;;1.00;0.90;;;17.80;97.30;;;;;;5013249;28;20700;-67
2023/09/19 05:17:40;;;;;;;1.10;1.00;;;17.70;97.30;;;;;;5030119;28;20430;-69
2023/09/19 05:20:16;;;;;;;1.00;0.90;;;17.70;97.30;;;;;;5028600;28;20835;-71
2023/09/19 05:22:43;;;;;;;1.00;0.90;;;17.70;97.30;;;;;;5030207;28;20569;-69
2023/09/19 05:25:09;;;;;;;1.00;0.90;;;17.70;97.30;;;;;;5019535;28;20427;-70
2023/09/19 05:27:35;;;;;;;1.00;0.90;;;17.60;97.30;;;;;;5017478;28;20563;-67
2023/09/19 05:30:01;;;;;;;0.90;0.80;;;17.60;97.30;;;;;;5012638;28;20511;-65
2023/09/19 05:32:26;;;;;;;1.60;1.20;;;17.50;97.30;;;;;;5021436;28;20213;-69
2023/09/19 05:34:53;;;;;;;1.33;1.10;;;17.50;97.30;;;;;;5011225;28;20185;-69
2023/09/19 05:37:19;;;;;;;1.90;1.27;;;17.50;97.30;;;;;;5011224;28;20179;-71
2023/09/19 05:39:45;;;;;;;1.60;1.50;;;17.50;97.30;;;;;;5009279;28;20515;-67
2023/09/19 05:42:10;;;;;;;0.90;0.80;;;17.50;97.30;;;;;;5015667;28;20571;-70
2023/09/19 05:44:36;;;;;;;0.90;0.80;;;17.50;97.30;;;;;;5022603;28;20196;-68
2023/09/19 05:47:03;;;;;;;1.40;1.30;;;17.40;97.30;;;;;;5023265;28;20552;-70
2023/09/19 05:49:28;;;;;;;1.43;1.33;;;17.50;97.30;;;;;;5021812;28;20733;-71
2023/09/19 05:51:56;;;;;;;0.90;0.80;;;17.50;97.30;;;;;;5019688;28;20451;-70
2023/09/19 05:54:22;;;;;;;0.90;0.80;;;17.50;97.30;;;;;;5021462;28;20169;-70
2023/09/19 05:56:48;;;;;;;2.50;1.43;;;17.50;97.30;;;;;;5023274;28;20910;-69
2023/09/19 05:59:15;;;;;;;1.00;0.90;;;17.50;97.30;;;;;;5021712;28;20478;-70
2023/09/19 06:01:42;;;;;;;1.10;1.00;;;17.50;97.30;;;;;;5021034;28;20812;-70
2023/09/19 06:04:08;;;;;;;1.07;0.97;;;17.50;97.30;;;;;;5022115;28;20510;-69
2023/09/19 06:06:38;;;;;;;3.13;2.60;;;17.50;97.30;;;;;;5022283;28;20522;-68
2023/09/19 06:09:05;;;;;;;0.90;0.80;;;17.50;97.30;;;;;;5024382;28;20183;-68
2023/09/19 06:11:34;;;;;;;0.80;0.70;;;17.50;97.30;;;;;;5021041;28;20456;-68
2023/09/19 06:14:02;;;;;;;1.13;1.10;;;17.50;97.30;;;;;;5020938;28;20983;-74
2023/09/19 06:16:32;;;;;;;2.20;1.83;;;17.50;97.30;;;;;;5019933;28;20909;-69
2023/09/19 06:18:59;;;;;;;1.13;1.03;;;17.50;97.30;;;;;;5020014;28;20420;-70
2023/09/19 06:21:26;;;;;;;1.50;1.23;;;17.50;97.30;;;;;;5023662;28;20876;-69
2023/09/19 06:23:53;;;;;;;1.10;1.00;;;17.50;97.30;;;;;;5023867;28;20442;-68
2023/09/19 06:26:18;;;;;;;1.43;1.10;;;17.50;97.30;;;;;;5021315;28;20478;-70
2023/09/19 06:28:44;;;;;;;1.00;0.90;;;17.50;97.30;;;;;;5021674;28;20519;-71
2023/09/19 06:31:10;;;;;;;1.00;0.90;;;17.60;97.30;;;;;;5021918;28;20254;-75
2023/09/19 06:33:40;;;;;;;1.00;0.90;;;17.60;97.30;;;;;;5021934;28;20213;-71
2023/09/19 06:36:06;;;;;;;0.90;0.80;;;17.70;97.30;;;;;;5020429;28;20212;-69
2023/09/19 06:38:34;;;;;;;1.00;0.90;;;17.70;97.30;;;;;;5022482;28;20423;-70
2023/09/19 06:41:01;;;;;;;1.33;1.23;;;17.80;97.30;;;;;;5021277;28;20538;-69
2023/09/19 06:43:28;;;;;;;1.37;1.27;;;17.80;97.30;;;;;;5020973;28;20464;-69
2023/09/19 06:45:54;;;;;;;0.90;0.80;;;17.90;97.30;;;;;;5023027;28;20423;-70
2023/09/19 06:48:21;;;;;;;0.90;0.80;;;18.00;97.30;;;;;;5009809;28;21063;-69
2023/09/19 06:50:47;;;;;;;0.90;0.80;;;18.10;97.30;;;;;;5015135;28;20482;-70
2023/09/19 06:53:13;;;;;;;1.00;0.90;;;18.20;97.30;;;;;;5021696;28;20459;-75
2023/09/19 06:55:40;;;;;;;0.90;0.80;;;18.20;97.30;;;;;;5021369;28;20438;-71
2023/09/19 06:58:06;;;;;;;1.10;1.00;;;18.20;97.30;;;;;;5022792;28;20268;-68
2023/09/19 07:00:36;;;;;;;1.00;0.90;;;18.20;97.30;;;;;;5020440;28;20436;-72
2023/09/19 07:03:11;;;;;;;1.47;1.27;;;18.30;97.30;;;;;;5021988;28;20510;-69
2023/09/19 07:05:38;;;;;;;1.33;1.00;;;18.30;97.30;;;;;;5019544;28;20430;-72
2023/09/19 07:08:06;;;;;;;1.20;1.10;;;18.30;97.30;;;;;;5022729;28;20425;-71
2023/09/19 07:10:33;;;;;;;1.00;0.90;;;18.40;97.30;;;;;;5023863;28;20470;-67
2023/09/19 07:12:59;;;;;;;3.00;1.30;;;18.40;97.30;;;;;;5028514;28;20481;-70
2023/09/19 07:15:26;;;;;;;17.73;1.27;;;18.50;97.30;;;;;;5021794;28;20422;-73
2023/09/19 07:17:56;;;;;;;1.20;1.10;;;18.60;97.30;;;;;;5022352;28;21049;-69
2023/09/19 07:20:23;;;;;;;1.10;1.00;;;18.60;97.30;;;;;;5021025;28;20435;-68
2023/09/19 07:22:50;;;;;;;0.83;0.77;;;18.70;97.30;;;;;;5019784;28;20454;-69
2023/09/19 07:25:16;;;;;;;1.03;0.93;;;18.70;97.30;;;;;;5019319;28;20416;-68
2023/09/19 07:27:42;;;;;;;0.90;0.80;;;18.70;97.30;;;;;;5027222;28;20966;-68
2023/09/19 07:30:08;;;;;;;1.00;0.90;;;18.70;97.30;;;;;;5028176;28;20184;-78
2023/09/19 07:32:38;;;;;;;1.00;0.90;;;18.80;97.30;;;;;;5025292;28;20239;-70
2023/09/19 07:35:05;;;;;;;0.77;0.73;;;18.80;97.30;;;;;;5022241;28;20774;-74
2023/09/19 07:37:33;;;;;;;0.90;0.90;;;18.70;97.30;;;;;;5025072;28;20423;-74
2023/09/19 07:39:59;;;;;;;1.77;1.20;;;18.70;97.30;;;;;;5012358;28;20416;-69
2023/09/19 07:42:25;;;;;;;0.70;0.70;;;18.70;97.30;;;;;;5014858;28;20451;-69
2023/09/19 07:44:51;;;;;;;0.80;0.80;;;18.70;96.80;;;;;;5014452;28;20511;-70
2023/09/19 07:47:17;;;;;;;1.67;0.97;;;18.80;96.30;;;;;;5027440;28;20418;-70
2023/09/19 07:49:43;;;;;;;1.07;0.97;;;18.90;96.80;;;;;;5012438;28;20243;-71
2023/09/19 07:52:10;;;;;;;0.90;0.80;;;18.90;96.00;;;;;;5020178;28;20451;-69
2023/09/19 07:54:36;;;;;;;0.70;0.70;;;19.00;95.60;;;;;;5019774;28;20204;-70
2023/09/19 07:57:02;;;;;;;2.33;2.20;;;19.10;95.00;;;;;;5020993;28;20458;-70
2023/09/19 07:59:28;;;;;;;5.13;1.20;;;19.10;94.60;;;;;;5017372;28;20983;-68
2023/09/19 08:01:53;;;;;;;1.27;1.00;;;19.10;94.00;;;;;;5017013;28;20543;-70
2023/09/19 08:04:19;;;;;;;0.90;0.80;;;19.20;93.60;;;;;;5021847;28;20173;-72
2023/09/19 08:06:45;;;;;;;1.53;1.50;;;19.20;94.00;;;;;;5026524;28;20769;-68
2023/09/19 08:09:12;;;;;;;1.00;0.90;;;19.40;94.00;;;;;;5018918;28;20234;-70
2023/09/19 08:11:39;;;;;;;1.10;1.00;;;19.40;93.80;;;;;;5020194;28;20203;-71
2023/09/19 08:14:05;;;;;;;1.97;1.27;;;19.40;94.10;;;;;;5018420;28;20467;-68
2023/09/19 08:16:31;;;;;;;1.00;0.90;;;19.40;94.40;;;;;;5013736;28;20947;-72
2023/09/19 08:18:57;;;;;;;3.57;1.07;;;19.40;93.90;;;;;;5028268;28;20521;-76
2023/09/19 08:21:23;;;;;;;0.90;0.80;;;19.30;94.30;;;;;;5019349;28;21054;-72
2023/09/19 08:23:50;;;;;;;1.73;1.27;;;19.30;94.10;;;;;;5022293;28;20188;-68
2023/09/19 08:26:15;;;;;;;0.87;0.83;;;19.20;94.30;;;;;;5016474;28;20437;-72
2023/09/19 08:28:41;;;;;;;0.90;0.80;;;19.20;94.60;;;;;;5010435;28;20416;-73
2023/09/19 08:31:08;;;;;;;0.70;0.70;;;19.10;94.10;;;;;;5018475;28;20669;-69
2023/09/19 08:33:35;;;;;;;1.80;1.70;;;19.10;94.00;;;;;;5020442;28;20200;-73
2023/09/19 08:36:04;;;;;;;0.77;0.70;;;19.10;94.30;;;;;;5026250;28;20427;-70
2023/09/19 08:38:33;;;;;;;3.20;1.60;;;19.00;94.10;;;;;;5013231;28;20463;-69
2023/09/19 08:40:59;;;;;;;0.70;0.70;;;19.00;94.30;;;;;;5023223;28;20446;-73
2023/09/19 08:43:26;;;;;;;0.90;0.80;;;19.00;94.40;;;;;;5020011;28;20461;-71
2023/09/19 08:46:09;;;;;;;0.90;0.80;;;19.00;94.50;;;;;;5010475;28;20584;-65
2023/09/19 08:48:37;;;;;;;2.27;2.00;;;19.10;94.40;;;;;;5008644;28;20786;-70
2023/09/19 08:51:07;;;;;;;1.00;0.93;;;19.10;95.30;;;;;;5009365;28;20436;-70
2023/09/19 08:53:35;;;;;;;0.70;0.70;;;19.10;94.30;;;;;;5023536;28;20975;-76
2023/09/19 08:56:03;;;;;;;1.30;1.20;;;19.10;94.70;;;;;;5026186;28;20411;-70
2023/09/19 08:58:35;;;;;;;1.10;1.00;;;19.10;94.20;;;;;;5020847;28;20428;-70
2023/09/19 09:01:01;;;;;;;0.70;0.70;;;19.10;94.90;;;;;;5022896;28;20547;-71
2023/09/19 09:03:32;;;;;;;0.90;0.80;;;19.20;95.00;;;;;;5020327;28;20419;-74
2023/09/19 09:05:58;;;;;;;1.93;1.33;;;19.20;94.40;;;;;;5016291;28;20805;-68
2023/09/19 09:08:25;;;;;;;0.90;0.80;;;19.30;94.60;;;;;;5018029;28;20416;-74
2023/09/19 09:10:51;;;;;;;1.10;1.00;;;19.40;94.20;;;;;;5016919;28;20508;-77
2023/09/19 09:13:17;;;;;;;1.00;0.90;;;19.50;94.70;;;;;;5023915;28;20479;-72
2023/09/19 09:15:44;;;;;;;1.13;1.13;;;19.60;94.30;;;;;;5024550;28;20467;-70
2023/09/19 09:18:10;;;;;;;3.03;1.20;;;19.70;93.90;;;;;;5021828;28;20450;-71
2023/09/19 09:20:37;;;;;;;1.00;0.90;;;19.80;93.90;;;;;;5014881;28;20878;-66
2023/09/19 09:23:04;;;;;;;0.77;0.77;;;19.80;93.40;;;;;;5025791;28;20494;-68
2023/09/19 09:28:48;;;;;;;1.20;1.10;;;19.80;90.90;;;;;;5015921;28;20411;-67
2023/09/19 09:31:23;;;;;;;0.90;0.80;;;19.80;91.50;;;;;;5024702;28;20439;-67
2023/09/19 09:33:55;;;;;;;1.27;1.17;;;19.80;90.40;;;;;;5026928;28;20468;-77
2023/09/19 09:36:43;;;;;;;1.10;1.00;;;19.80;90.40;;;;;;5023811;28;20419;-68
2023/09/19 09:39:19;;;;;;;1.10;1.00;;;19.80;89.10;;;;;;5022178;28;20460;-67
2023/09/19 09:41:45;;;;;;;1.47;1.30;;;19.80;89.00;;;;;;5020305;28;20497;-69
2023/09/19 09:44:17;;;;;;;1.00;0.90;;;19.90;89.10;;;;;;5015834;28;20420;-70
2023/09/19 09:52:08;;;;;;;1.37;1.27;;;20.10;87.60;;;;;;5021367;28;20455;-70
2023/09/19 09:54:38;;;;;;;7.50;1.43;;;20.10;85.70;;;;;;5021890;28;20428;-71
2023/09/19 09:57:16;;;;;;;0.90;0.90;;;20.10;85.70;;;;;;5021588;28;20928;-71
2023/09/19 09:59:49;;;;;;;0.87;0.80;;;20.10;86.00;;;;;;5008987;28;20443;-67
2023/09/19 10:02:20;;;;;;;1.50;1.00;;;20.10;85.90;;;;;;5011014;28;20831;-70
2023/09/19 10:04:51;;;;;;;0.90;0.80;;;20.10;85.90;;;;;;5014520;28;20502;-70
2023/09/19 10:07:32;;;;;;;0.90;0.80;;;20.20;86.40;;;;;;5017126;28;20463;-67
2023/09/19 10:10:09;;;;;;;0.90;0.80;;;20.20;86.10;;;;;;5016918;28;20453;-67
2023/09/19 10:12:41;;;;;;;1.07;0.90;;;20.20;85.30;;;;;;5021849;28;20589;-67
2023/09/19 10:15:11;;;;;;;1.90;1.80;;;20.20;85.70;;;;;;5015478;28;20436;-67
2023/09/19 10:17:38;;;;;;;0.80;0.80;;;20.20;85.90;;;;;;5022091;28;20451;-66
2023/09/19 10:20:17;;;;;;;1.10;1.00;;;20.30;86.80;;;;;;5021390;28;20423;-70
2023/09/19 10:22:45;;;;;;;0.90;0.80;;;20.30;85.60;;;;;;5025542;28;20426;-71
2023/09/19 10:25:12;;;;;;;0.70;0.70;;;20.20;84.90;;;;;;5017725;28;20514;-70
2023/09/19 10:27:41;;;;;;;1.47;1.37;;;20.10;84.20;;;;;;5017410;28;20466;-68
2023/09/19 10:30:09;;;;;;;1.00;0.90;;;20.00;83.90;;;;;;5011008;28;20451;-69
2023/09/19 10:32:35;;;;;;;0.87;0.83;;;20.00;84.40;;;;;;5018788;28;20459;-69
2023/09/19 10:35:04;;;;;;;1.50;0.97;;;20.00;84.40;;;;;;5016733;28;20419;-69
2023/09/19 10:37:34;;;;;;;0.93;0.87;;;20.00;84.70;;;;;;5019614;28;20510;-70
2023/09/19 10:39:59;;;;;;;1.10;1.00;;;20.00;84.00;;;;;;5022952;28;20463;-68
2023/09/19 10:42:28;;;;;;;1.73;1.63;;;20.10;83.60;;;;;;5015833;28;20927;-75
2023/09/19 10:44:59;;;;;;;4.00;0.90;;;20.10;84.30;;;;;;5020039;28;20181;-67
2023/09/19 10:47:25;;;;;;;0.93;0.83;;;20.20;83.70;;;;;;5020166;28;20423;-68
2023/09/19 10:49:51;;;;;;;1.27;1.10;;;20.30;83.60;;;;;;5019350;28;20506;-67
2023/09/19 10:52:26;;;;;;;0.80;0.80;;;20.30;84.40;;;;;;5014646;28;20494;-68
2023/09/19 10:54:57;;;;;;;0.90;0.80;;;20.40;84.10;;;;;;5018454;28;20181;-69
2023/09/19 10:57:23;;;;;;;0.80;0.80;;;20.40;83.40;;;;;;5018113;28;20419;-68
2023/09/19 11:00:24;;;;;;;1.20;1.10;;;20.50;83.00;;;;;;5015821;28;20431;-73
2023/09/19 11:03:11;;;;;;;1.13;1.13;;;20.50;82.80;;;;;;5014151;28;20483;-73
2023/09/19 11:05:40;;;;;;;1.00;0.93;;;20.60;82.80;;;;;;5015578;28;20438;-70
2023/09/19 11:08:07;;;;;;;0.87;0.83;;;20.60;81.70;;;;;;5016924;28;20514;-69
2023/09/19 11:10:59;;;;;;;0.90;0.80;;;20.60;82.40;;;;;;5018264;28;20541;-70
2023/09/19 11:13:37;;;;;;;1.10;1.10;;;20.60;82.40;;;;;;5018478;28;20494;-66
2023/09/19 11:16:04;;;;;;;2.63;1.27;;;20.60;81.90;;;;;;5015431;28;20424;-67
2023/09/19 11:18:42;;;;;;;0.77;0.73;;;20.60;83.50;;;;;;5017647;28;20472;-68
2023/09/19 11:21:31;;;;;;;1.10;1.00;;;20.60;82.40;;;;;;5018054;28;20450;-84
2023/09/19 11:24:24;;;;;;;1.10;1.00;;;20.60;82.00;;;;;;5016120;28;20470;-74
2023/09/19 11:26:51;;;;;;;0.83;0.77;;;20.60;81.20;;;;;;5015002;28;20420;-70
2023/09/19 11:29:31;;;;;;;0.93;0.83;;;20.60;82.30;;;;;;5020778;28;20419;-70
2023/09/19 11:31:59;;;;;;;2.60;1.33;;;20.70;81.70;;;;;;5018604;28;20550;-70
2023/09/19 11:34:50;;;;;;;4.10;1.90;;;20.80;82.10;;;;;;5014298;23;20508;-74
2023/09/19 11:37:15;;;;;;;4.57;0.97;;;20.80;82.10;;;;;;5003031;28;20428;-77
2023/09/19 11:40:15;;;;;;;1.00;0.90;;;20.90;81.70;;;;;;4995798;28;20455;-71
2023/09/19 11:42:53;;;;;;;4.20;2.20;;;21.00;82.20;;;;;;4976712;28;20174;-70
2023/09/19 11:45:49;;;;;;;0.90;0.80;;;21.10;81.40;;;;;;4979846;28;20454;-74
2023/09/19 11:48:25;;;;;;;1.03;0.93;;;21.10;80.10;;;;;;4979977;28;20968;-74
2023/09/19 11:50:51;;;;;;;1.10;1.00;;;21.10;80.90;;;;;;4981869;28;20441;-75
2023/09/19 11:53:19;;;;;;;0.93;0.83;;;21.20;80.40;;;;;;4977064;28;20466;-72
2023/09/19 11:55:45;;;;;;;0.90;0.80;;;21.20;81.20;;;;;;4985176;28;20444;-73
2023/09/19 11:58:16;;;;;;;1.20;1.10;;;21.30;80.90;;;;;;4981772;28;21110;-71
2023/09/19 12:00:43;;;;;;;0.87;0.87;;;21.30;80.50;;;;;;4980300;28;20818;-74
2023/09/19 12:03:11;;;;;;;1.60;1.23;;;21.30;79.70;;;;;;4977004;28;20433;-73
2023/09/19 12:05:37;;;;;;;3.23;0.87;;;21.40;81.20;;;;;;4979426;28;20416;-73
2023/09/19 12:08:07;;;;;;;1.10;1.00;;;21.50;81.40;;;;;;4980827;28;21005;-73
2023/09/19 12:10:33;;;;;;;1.20;1.10;;;21.60;80.60;;;;;;4983828;28;20447;-69
2023/09/19 12:12:59;;;;;;;0.90;0.80;;;21.60;80.30;;;;;;4980410;28;20476;-69
2023/09/19 12:15:34;;;;;;;1.57;0.93;;;21.60;79.60;;;;;;4972171;28;20269;-69
2023/09/19 12:18:00;;;;;;;3.47;1.60;;;21.70;80.80;;;;;;4979437;28;20424;-69
2023/09/19 12:20:41;;;;;;;0.70;0.70;;;21.80;81.20;;;;;;4980383;28;20456;-73
2023/09/19 12:23:13;;;;;;;0.90;0.80;;;22.00;79.40;;;;;;4982246;28;20949;-73
2023/09/19 12:25:46;;;;;;;0.70;0.70;;;22.00;80.10;;;;;;4978968;28;20475;-74
2023/09/19 12:28:12;;;;;;;1.00;0.90;;;22.10;79.20;;;;;;4979413;28;20472;-73
2023/09/19 12:30:41;;;;;;;1.60;1.50;;;22.00;79.70;;;;;;4979052;28;20532;-71
2023/09/19 12:33:25;;;;;;;1.23;1.20;;;21.90;79.20;;;;;;4979693;28;20226;-72
2023/09/19 12:35:53;;;;;;;0.90;0.80;;;21.70;80.20;;;;;;4980129;28;20830;-70
2023/09/19 12:38:28;;;;;;;0.70;0.70;;;21.70;80.70;;;;;;4980502;28;20932;-72
2023/09/19 12:41:01;;;;;;;0.83;0.77;;;21.70;80.60;;;;;;4991131;28;20444;-72
2023/09/19 12:43:36;;;;;;;0.90;0.80;;;21.70;79.60;;;;;;4986770;28;20430;-68
2023/09/19 12:46:02;;;;;;;1.33;1.23;;;21.70;79.40;;;;;;4981381;28;20417;-69
2023/09/19 12:48:34;;;;;;;1.07;1.00;;;21.70;80.50;;;;;;4973874;28;20422;-69
2023/09/19 12:51:09;;;;;;;1.00;0.90;;;21.80;81.30;;;;;;4987046;28;20515;-75
2023/09/19 12:53:50;;;;;;;14.67;1.67;;;21.80;79.20;;;;;;4978911;28;20476;-71
2023/09/19 12:56:17;;;;;;;1.30;1.27;;;21.80;79.60;;;;;;4990395;28;20931;-72
2023/09/19 12:58:55;;;;;;;0.87;0.83;;;21.90;79.90;;;;;;4982922;28;20418;-72
2023/09/19 13:01:27;;;;;;;2.60;1.27;;;22.00;79.10;;;;;;4980965;28;20441;-72
2023/09/19 13:04:20;;;;;;;2.17;2.00;;;22.10;80.00;;;;;;4977344;28;20421;-73
2023/09/19 13:06:52;;;;;;;0.87;0.73;;;22.20;79.50;;;;;;4979856;28;20451;-71
2023/09/19 13:09:24;;;;;;;1.20;1.10;;;22.40;78.70;;;;;;4987169;28;20417;-70
2023/09/19 13:11:50;;;;;;;5.47;1.00;;;22.40;78.50;;;;;;4979757;28;20438;-70
2023/09/19 13:14:24;;;;;;;1.57;1.20;;;22.40;78.30;;;;;;4985040;28;20519;-71
2023/09/19 13:17:03;;;;;;;0.70;0.70;;;22.50;78.80;;;;;;4975124;28;20428;-69
2023/09/19 13:19:48;;;;;;;3.33;0.80;;;22.60;78.60;;;;;;4984509;28;20819;-70
2023/09/19 13:22:40;;;;;;;2.60;0.90;;;22.80;79.80;;;;;;4983606;28;20437;-71
2023/09/19 13:25:15;;;;;;;0.90;0.80;;;23.00;78.50;;;;;;4985733;28;20440;-68
2023/09/19 13:27:41;;;;;;;2.00;1.40;;;23.10;77.50;;;;;;4985309;28;20428;-70
2023/09/19 13:30:08;;;;;;;1.10;1.00;;;23.30;77.60;;;;;;4983751;28;20504;-71
2023/09/19 13:32:33;;;;;;;1.20;1.03;;;23.40;76.30;;;;;;4985302;28;20473;-72
2023/09/19 13:34:59;;;;;;;1.53;1.10;;;23.40;76.70;;;;;;4983573;28;20513;-73
2023/09/19 13:37:26;;;;;;;1.10;0.90;;;23.40;76.30;;;;;;4982454;28;20178;-71
2023/09/19 13:39:52;;;;;;;1.30;1.07;;;23.40;76.60;;;;;;4982064;28;20225;-72
2023/09/19 13:42:18;;;;;;;2.50;1.20;;;23.50;76.70;;;;;;4979751;28;20446;-71
2023/09/19 13:44:44;;;;;;;0.70;0.70;;;23.60;76.20;;;;;;4980387;28;20253;-72
2023/09/19 13:47:10;;;;;;;1.73;1.67;;;23.70;76.60;;;;;;4982152;28;20528;-72
2023/09/19 13:49:36;;;;;;;0.87;0.83;;;23.70;76.20;;;;;;4978317;28;20579;-71
2023/09/19 13:52:05;;;;;;;2.93;1.13;;;23.80;77.00;;;;;;4979926;28;20819;-69
2023/09/19 13:54:31;;;;;;;2.50;1.50;;;23.70;75.40;;;;;;4983289;28;20479;-70
2023/09/19 13:56:56;;;;;;;1.67;0.93;;;23.70;75.60;;;;;;4979163;28;20612;-70
2023/09/19 13:59:23;;;;;;;2.07;1.20;;;23.70;76.60;;;;;;4977950;28;20586;-70
2023/09/19 14:01:50;;;;;;;1.27;1.17;;;23.70;76.20;;;;;;4981641;28;20194;-70
2023/09/19 14:04:16;;;;;;;2.37;1.53;;;23.70;76.30;;;;;;4977104;28;20496;-71
2023/09/19 14:06:42;;;;;;;1.63;1.47;;;23.70;76.80;;;;;;4982774;28;20887;-72
2023/09/19 14:09:09;;;;;;;1.40;1.33;;;23.80;76.30;;;;;;4978862;28;20419;-72
2023/09/19 14:11:34;;;;;;;1.27;1.20;;;23.80;78.00;;;;;;4978139;28;20202;-72
2023/09/19 14:14:00;;;;;;;1.13;1.03;;;23.90;77.40;;;;;;4978388;28;20500;-72
2023/09/19 14:16:29;;;;;;;1.20;1.00;;;24.00;76.20;;;;;;4980501;28;20193;-73
2023/09/19 14:18:55;;;;;;;1.33;1.23;;;24.00;76.80;;;;;;4982608;28;20492;-72
2023/09/19 14:21:21;;;;;;;0.97;0.90;;;24.00;75.40;;;;;;4982999;28;20519;-72
2023/09/19 14:23:46;;;;;;;1.07;0.97;;;24.00;75.60;;;;;;4979551;28;20181;-71
2023/09/19 14:26:12;;;;;;;2.50;1.53;;;23.90;74.70;;;;;;4985982;28;20260;-73
2023/09/19 14:28:38;;;;;;;2.10;1.73;;;24.00;76.70;;;;;;4976319;28;20269;-73
2023/09/19 14:31:09;;;;;;;1.30;1.20;;;24.00;75.70;;;;;;4982779;28;20201;-73
2023/09/19 14:33:35;;;;;;;1.77;1.67;;;24.00;75.90;;;;;;4980069;28;20477;-71
2023/09/19 14:36:06;;;;;;;1.80;1.27;;;24.10;76.60;;;;;;4982296;28;20421;-68
2023/09/19 14:38:35;;;;;;;2.30;1.00;;;24.10;74.60;;;;;;4979295;28;20417;-68
2023/09/19 14:41:05;;;;;;;3.23;1.90;;;24.10;74.40;;;;;;4980891;28;20434;-68
2023/09/19 14:43:32;;;;;;;1.37;0.90;;;24.20;74.90;;;;;;4978694;28;20422;-71
2023/09/19 14:46:04;;;;;;;2.30;1.43;;;24.20;73.30;;;;;;4977459;28;20475;-70
2023/09/19 14:48:30;;;;;;;2.57;1.67;;;24.10;73.90;;;;;;4981668;28;20413;-71
2023/09/19 14:51:02;;;;;;;1.10;1.10;;;24.00;73.30;;;;;;4978853;28;20434;-71
2023/09/19 14:53:27;;;;;;;1.70;1.20;;;24.00;75.00;;;;;;4989062;28;20204;-72
2023/09/19 14:55:54;;;;;;;0.90;0.90;;;24.10;74.20;;;;;;4986095;28;20417;-70
2023/09/19 14:58:21;;;;;;;1.90;1.03;;;24.20;75.00;;;;;;4986681;28;20526;-72
2023/09/19 15:00:47;;;;;;;1.20;1.00;;;24.20;75.20;;;;;;4979810;28;21177;-69
2023/09/19 15:03:14;;;;;;;2.40;1.40;;;24.20;74.70;;;;;;4981936;28;20417;-69
2023/09/19 15:05:40;;;;;;;1.67;1.13;;;24.20;76.20;;;;;;4975818;28;20573;-69
2023/09/19 15:08:05;;;;;;;1.70;1.20;;;24.20;74.60;;;;;;4985388;28;20417;-68
2023/09/19 15:10:31;;;;;;;1.00;0.97;;;24.10;74.70;;;;;;4981142;28;20194;-68
2023/09/19 15:12:57;;;;;;;1.40;1.00;;;23.90;75.30;;;;;;4981804;28;20753;-69
2023/09/19 15:15:23;;;;;;;3.17;1.33;;;23.90;75.60;;;;;;4975721;28;20268;-73
2023/09/19 15:17:48;;;;;;;1.23;0.90;;;23.90;74.60;;;;;;4978584;28;20186;-71
2023/09/19 15:20:14;;;;;;;1.00;0.90;;;23.90;75.50;;;;;;4979586;28;20181;-72
2023/09/19 15:22:40;;;;;;;1.87;1.13;;;24.00;74.50;;;;;;4978460;28;20196;-72
2023/09/19 15:25:06;;;;;;;1.03;0.93;;;24.10;75.30;;;;;;4980015;28;20174;-72
2023/09/19 15:27:32;;;;;;;0.70;0.70;;;24.20;74.90;;;;;;4994764;28;20963;-73
2023/09/19 15:30:00;;;;;;;1.07;0.90;;;24.30;74.30;;;;;;4978100;28;20185;-71
2023/09/19 15:32:26;;;;;;;2.27;1.20;;;24.30;72.30;;;;;;4977402;28;20969;-69
2023/09/19 15:34:51;;;;;;;1.00;1.00;;;24.30;72.70;;;;;;4978046;28;20434;-71
2023/09/19 15:37:17;;;;;;;0.90;0.80;;;24.20;72.50;;;;;;4979502;28;20181;-71
2023/09/19 15:39:44;;;;;;;1.00;0.80;;;24.10;73.10;;;;;;4978944;28;20599;-68
2023/09/19 15:42:10;;;;;;;1.63;0.97;;;24.10;72.50;;;;;;4982819;28;20261;-70
2023/09/19 15:44:36;;;;;;;2.80;1.10;;;24.00;73.00;;;;;;4979453;28;20425;-69
2023/09/19 15:47:03;;;;;;;5.20;1.30;;;24.10;72.10;;;;;;4980140;28;20422;-70
2023/09/19 15:49:29;;;;;;;1.27;1.10;;;24.10;71.50;;;;;;4987414;28;20451;-68
2023/09/19 15:51:54;;;;;;;1.23;1.10;;;24.10;72.40;;;;;;4983260;28;20949;-73
2023/09/19 15:54:20;;;;;;;1.30;1.20;;;24.10;71.50;;;;;;4979016;28;20228;-71
2023/09/19 15:56:48;;;;;;;1.07;0.87;;;24.20;72.90;;;;;;4985005;28;20186;-71
2023/09/19 15:59:13;;;;;;;0.97;0.93;;;24.30;72.30;;;;;;4985111;28;20178;-71
2023/09/19 16:01:42;;;;;;;1.80;1.23;;;24.20;71.70;;;;;;4985404;28;20448;-70
2023/09/19 16:04:09;;;;;;;1.67;1.33;;;23.90;72.30;;;;;;4980011;28;20187;-68
2023/09/19 16:06:36;;;;;;;1.67;0.90;;;23.70;72.90;;;;;;4981410;28;20442;-72
2023/09/19 16:09:03;;;;;;;6.67;1.80;;;23.30;72.20;;;;;;5003190;28;20455;-74
2023/09/19 16:11:31;;;;;;;1.80;1.23;;;23.00;73.30;;;;;;4991240;28;21040;-71
2023/09/19 16:13:57;;;;;;;1.80;1.00;;;22.80;73.30;;;;;;4988612;28;20474;-72
2023/09/19 16:16:23;;;;;;;1.10;1.07;;;22.80;74.30;;;;;;4991032;28;20519;-71
2023/09/19 16:18:51;;;;;;;2.80;1.77;;;22.70;74.70;;;;;;4987612;28;20546;-71
2023/09/19 16:21:19;;;;;;;4.60;1.60;;;22.70;74.50;;;;;;4986768;28;20451;-72
2023/09/19 16:23:46;;;;;;;1.17;1.07;;;22.70;73.80;;;;;;4987057;28;21043;-72
2023/09/19 16:26:13;;;;;;;2.30;1.40;;;22.70;74.00;;;;;;4989982;28;20430;-72
2023/09/19 16:28:40;;;;;;;1.00;0.90;;;22.80;74.70;;;;;;4986227;28;20494;-74
2023/09/19 16:31:07;;;;;;;1.90;1.47;;;22.80;74.70;;;;;;4986560;28;20532;-72
2023/09/19 16:33:37;;;;;;;0.80;0.80;;;22.90;74.80;;;;;;4991331;28;20910;-72
2023/09/19 16:36:07;;;;;;;4.07;1.43;;;22.90;74.70;;;;;;4991947;28;20445;-73
2023/09/19 16:38:33;;;;;;;1.00;0.90;;;22.90;74.40;;;;;;4988274;28;20464;-69
2023/09/19 16:40:59;;;;;;;4.30;1.63;;;22.70;74.00;;;;;;4989820;28;20472;-68
2023/09/19 16:43:28;;;;;;;1.90;1.07;;;22.70;74.60;;;;;;4991036;28;20597;-68
2023/09/19 16:45:58;;;;;;;2.03;1.40;;;22.70;74.60;;;;;;4987913;28;20198;-69
2023/09/19 16:48:25;;;;;;;1.33;1.23;;;22.60;74.70;;;;;;4988999;28;20728;-70
2023/09/19 16:50:52;;;;;;;1.90;1.40;;;22.50;75.00;;;;;;4989250;28;20445;-69
2023/09/19 16:53:18;;;;;;;0.90;0.80;;;22.30;75.00;;;;;;4989923;28;20871;-69
2023/09/19 16:55:47;;;;;;;4.03;2.13;;;22.20;75.50;;;;;;4992422;28;20467;-69
2023/09/19 16:58:13;;;;;;;2.30;1.30;;;22.10;75.90;;;;;;4987675;28;20419;-69
2023/09/19 17:00:39;;;;;;;1.20;1.10;;;22.00;76.10;;;;;;4989219;28;20564;-69
2023/09/19 17:03:05;;;;;;;1.43;1.30;;;21.80;75.80;;;;;;4983484;28;20536;-69
2023/09/19 17:05:31;;;;;;;2.60;2.33;;;21.60;76.70;;;;;;4980292;28;20175;-69